Time;durP1;ratioP1;P1;durP2;ratioP2;P2;SDS_P1;SDS_P2;PMS_P1;PMS_P2;Temp;Humidity;BMP_temperature;BMP_pressure;BME280_temperature;BME280_humidity;BME280_pressure;Samples;Min_cycle;Max_cycle;Signal;HPM_P1;HPM_P2
2021/10/19 00:02:03;;;;;;;28.00;18.50;;;;;;;5.63;100.00;96983.41;5029736;28;20583;-74
2021/10/19 00:04:28;;;;;;;28.47;19.03;;;;;;;5.71;100.00;96972.44;5041053;28;20121;-74
2021/10/19 00:06:55;;;;;;;29.17;18.47;;;;;;;5.90;100.00;96968.38;5034471;28;20678;-74
2021/10/19 00:09:20;;;;;;;28.00;19.20;;;;;;;5.88;100.00;96965.06;5027060;28;20387;-74
2021/10/19 00:11:46;;;;;;;28.73;18.23;;;;;;;5.83;100.00;96966.31;5034882;28;20029;-74
2021/10/19 00:14:12;;;;;;;29.93;19.97;;;;;;;5.76;100.00;96955.50;5012739;28;20033;-75
2021/10/19 00:16:37;;;;;;;26.47;17.80;;;;;;;5.83;100.00;96961.09;5009252;28;20018;-74
2021/10/19 00:19:04;;;;;;;28.03;18.40;;;;;;;5.82;100.00;96960.28;5016581;28;20040;-74
2021/10/19 00:21:30;;;;;;;28.83;19.07;;;;;;;5.84;100.00;96958.41;5036104;28;20040;-74
2021/10/19 00:23:56;;;;;;;26.57;18.10;;;;;;;5.77;100.00;96958.94;5034495;28;20093;-74
2021/10/19 00:26:23;;;;;;;28.20;19.27;;;;;;;5.83;100.00;96950.66;5036087;28;20086;-74
2021/10/19 00:28:48;;;;;;;23.73;17.97;;;;;;;5.85;100.00;96954.00;5040483;28;20036;-74
2021/10/19 00:31:14;;;;;;;29.70;18.73;;;;;;;5.82;100.00;96949.00;5026551;28;20075;-75
2021/10/19 00:33:40;;;;;;;27.37;18.90;;;;;;;5.81;100.00;96956.00;5025694;28;20037;-75
2021/10/19 00:36:06;;;;;;;25.97;17.60;;;;;;;5.80;100.00;96956.09;5024197;28;20024;-74
2021/10/19 00:38:32;;;;;;;28.47;18.17;;;;;;;5.74;100.00;96960.00;5016841;28;20490;-75
2021/10/19 00:40:58;;;;;;;28.17;17.83;;;;;;;5.66;100.00;96957.09;5057173;28;20083;-75
2021/10/19 00:43:27;;;;;;;23.53;15.67;;;;;;;5.65;100.00;96965.88;5022369;28;20032;-75
2021/10/19 00:45:56;;;;;;;27.33;16.37;;;;;;;5.63;100.00;96967.75;5030667;28;20016;-75
2021/10/19 00:48:25;;;;;;;27.13;16.57;;;;;;;5.57;100.00;96966.44;5025971;28;20586;-75
2021/10/19 00:50:51;;;;;;;24.40;16.43;;;;;;;5.55;100.00;96964.88;5030662;28;20597;-74
2021/10/19 00:53:18;;;;;;;24.00;16.87;;;;;;;5.53;100.00;96962.38;5011411;28;20037;-74
2021/10/19 00:55:43;;;;;;;24.43;16.37;;;;;;;5.52;100.00;96954.66;5031224;28;20473;-74
2021/10/19 00:58:09;;;;;;;21.80;15.13;;;;;;;5.46;100.00;96962.94;5023103;28;20044;-75
2021/10/19 01:00:36;;;;;;;24.47;15.50;;;;;;;5.39;100.00;96950.31;5031906;28;20060;-74
2021/10/19 01:03:03;;;;;;;23.87;16.33;;;;;;;5.40;100.00;96959.81;5032743;28;20029;-74
2021/10/19 01:05:29;;;;;;;23.47;16.07;;;;;;;5.46;100.00;96953.31;5033652;28;20033;-74
2021/10/19 01:07:55;;;;;;;22.40;14.97;;;;;;;5.48;100.00;96961.06;5011372;28;20427;-74
2021/10/19 01:10:21;;;;;;;26.30;16.20;;;;;;;5.31;100.00;96976.13;5028202;28;20117;-74
2021/10/19 01:12:47;;;;;;;24.07;16.17;;;;;;;5.22;100.00;96971.56;5036944;28;20027;-74
2021/10/19 01:15:17;;;;;;;26.23;15.67;;;;;;;5.19;100.00;96971.75;5038524;28;20067;-74
2021/10/19 01:17:52;;;;;;;26.67;17.27;;;;;;;5.24;100.00;96968.84;5026194;28;20052;-74
2021/10/19 01:20:23;;;;;;;26.90;18.50;;;;;;;5.25;100.00;96979.16;5060903;28;20077;-74
2021/10/19 01:22:49;;;;;;;24.97;17.77;;;;;;;5.27;100.00;96979.91;5034793;28;20488;-75
2021/10/19 01:25:17;;;;;;;25.20;17.50;;;;;;;5.30;100.00;96979.69;5037589;28;20025;-75
2021/10/19 01:27:48;;;;;;;28.90;18.90;;;;;;;5.39;100.00;96976.41;5019832;28;20474;-74
2021/10/19 01:30:14;;;;;;;30.13;19.73;;;;;;;5.48;100.00;96971.50;5036861;28;20025;-74
2021/10/19 01:32:40;;;;;;;29.03;19.30;;;;;;;5.50;100.00;96977.41;5037533;28;20017;-74
2021/10/19 01:35:07;;;;;;;28.93;18.50;;;;;;;5.44;100.00;96970.88;5029374;28;20372;-74
2021/10/19 01:37:33;;;;;;;28.07;18.67;;;;;;;5.41;100.00;96977.13;5037523;28;20092;-74
2021/10/19 01:39:58;;;;;;;26.10;17.37;;;;;;;5.44;100.00;96973.47;5043711;28;20028;-75
2021/10/19 01:42:24;;;;;;;27.77;18.73;;;;;;;5.46;100.00;96970.75;5032140;28;20029;-74
2021/10/19 01:44:49;;;;;;;27.67;18.47;;;;;;;5.47;100.00;96967.22;5036177;28;20043;-74
2021/10/19 01:47:15;;;;;;;29.43;20.00;;;;;;;5.54;100.00;96951.00;5065982;28;20479;-74
2021/10/19 01:49:41;;;;;;;28.23;17.67;;;;;;;5.49;100.00;96941.84;5027002;28;20056;-74
2021/10/19 01:52:06;;;;;;;27.10;18.27;;;;;;;5.53;100.00;96944.09;5025929;28;20033;-75
2021/10/19 01:54:32;;;;;;;29.17;19.23;;;;;;;5.68;100.00;96944.78;5011998;28;20030;-75
2021/10/19 01:56:58;;;;;;;28.33;18.27;;;;;;;5.77;100.00;96946.75;5013880;28;20067;-75
2021/10/19 01:59:23;;;;;;;25.87;18.10;;;;;;;5.80;100.00;96948.28;5035759;28;20036;-75
2021/10/19 02:01:50;;;;;;;25.83;18.60;;;;;;;5.79;100.00;96938.78;5010431;28;20507;-74
2021/10/19 02:04:16;;;;;;;25.00;17.97;;;;;;;5.78;100.00;96935.34;5073471;28;20040;-75
2021/10/19 02:06:42;;;;;;;28.00;18.77;;;;;;;5.76;100.00;96933.78;5041608;28;20426;-74
2021/10/19 02:09:07;;;;;;;27.93;18.77;;;;;;;5.81;100.00;96935.13;5039572;28;20064;-75
2021/10/19 02:11:33;;;;;;;25.50;17.70;;;;;;;5.80;100.00;96932.59;5028798;28;20033;-75
2021/10/19 02:13:59;;;;;;;27.40;18.37;;;;;;;5.80;100.00;96933.47;5038603;28;20384;-75
2021/10/19 02:16:24;;;;;;;26.03;18.23;;;;;;;5.87;100.00;96931.25;5043738;28;20602;-75
2021/10/19 02:18:50;;;;;;;27.13;17.73;;;;;;;5.95;100.00;96933.31;5029354;28;20021;-74
2021/10/19 02:21:17;;;;;;;27.00;17.90;;;;;;;5.91;100.00;96933.50;5028780;28;20029;-75
2021/10/19 02:23:42;;;;;;;24.63;16.70;;;;;;;5.87;100.00;96924.25;5037886;28;20037;-75
2021/10/19 02:26:08;;;;;;;26.17;18.33;;;;;;;5.90;100.00;96921.41;5039507;28;20025;-75
2021/10/19 02:28:34;;;;;;;25.90;18.27;;;;;;;5.95;100.00;96913.25;5037074;28;20037;-75
2021/10/19 02:31:00;;;;;;;25.07;18.10;;;;;;;5.90;100.00;96924.00;5063059;28;20089;-74
2021/10/19 02:33:25;;;;;;;27.73;18.00;;;;;;;5.91;100.00;96930.88;5033209;28;20033;-75
2021/10/19 02:35:51;;;;;;;27.20;17.70;;;;;;;5.88;100.00;96923.28;5030449;28;20033;-74
2021/10/19 02:38:16;;;;;;;26.57;16.93;;;;;;;5.93;100.00;96915.13;5032974;28;20026;-74
2021/10/19 02:40:42;;;;;;;22.57;16.30;;;;;;;5.92;100.00;96918.66;5027719;28;20033;-74
2021/10/19 02:43:08;;;;;;;24.67;17.70;;;;;;;5.97;100.00;96929.66;5028323;28;20104;-74
2021/10/19 02:45:33;;;;;;;24.43;16.17;;;;;;;5.95;100.00;96928.91;5029064;28;20032;-74
2021/10/19 02:47:59;;;;;;;22.83;16.07;;;;;;;6.02;100.00;96934.50;5034205;28;20030;-74
2021/10/19 02:50:25;;;;;;;24.40;16.13;;;;;;;6.06;100.00;96931.56;5028912;28;20032;-74
2021/10/19 02:52:50;;;;;;;22.03;15.80;;;;;;;5.97;100.00;96941.84;5024164;28;20034;-74
2021/10/19 02:55:16;;;;;;;22.73;15.67;;;;;;;5.89;100.00;96929.31;5036461;28;20029;-74
2021/10/19 02:57:44;;;;;;;25.87;17.17;;;;;;;5.83;100.00;96928.00;5029418;28;20029;-74
2021/10/19 03:00:10;;;;;;;22.20;15.70;;;;;;;5.78;100.00;96922.28;5031948;28;20032;-74
2021/10/19 03:02:36;;;;;;;23.90;16.70;;;;;;;5.75;100.00;96913.84;5038334;28;20101;-75
2021/10/19 03:05:03;;;;;;;24.83;16.23;;;;;;;5.69;100.00;96909.91;5037701;28;20112;-74
2021/10/19 03:07:29;;;;;;;21.17;15.20;;;;;;;5.65;100.00;96911.09;5030709;28;20644;-74
2021/10/19 03:09:55;;;;;;;22.43;15.43;;;;;;;5.61;100.00;96915.69;5012156;28;20030;-74
2021/10/19 03:12:20;;;;;;;22.07;15.40;;;;;;;5.58;100.00;96915.91;5039012;28;20037;-74
2021/10/19 03:14:46;;;;;;;19.93;14.50;;;;;;;5.49;100.00;96920.97;5029913;28;20025;-74
2021/10/19 03:17:12;;;;;;;19.80;14.30;;;;;;;5.44;100.00;96919.53;5063778;28;20056;-75
2021/10/19 03:19:37;;;;;;;21.77;14.70;;;;;;;5.41;100.00;96932.78;5034885;28;20035;-74
2021/10/19 03:22:03;;;;;;;21.97;14.77;;;;;;;5.23;100.00;96941.09;5035585;28;20128;-74
2021/10/19 03:24:29;;;;;;;22.00;14.93;;;;;;;5.28;100.00;96937.22;5034823;28;20021;-74
2021/10/19 03:26:55;;;;;;;22.73;15.23;;;;;;;5.28;100.00;96939.00;5028609;28;20029;-75
2021/10/19 03:29:21;;;;;;;21.43;15.13;;;;;;;5.26;100.00;96933.88;5011962;28;20418;-75
2021/10/19 03:31:47;;;;;;;28.93;17.37;;;;;;;5.17;100.00;96932.78;5024543;28;20040;-75
2021/10/19 03:34:13;;;;;;;24.47;16.17;;;;;;;5.21;100.00;96920.34;5032016;28;20029;-75
2021/10/19 03:36:39;;;;;;;20.93;15.30;;;;;;;5.28;100.00;96918.97;5014946;28;20029;-74
2021/10/19 03:39:05;;;;;;;23.47;15.43;;;;;;;5.33;100.00;96924.69;5029832;28;20083;-74
2021/10/19 03:41:31;;;;;;;23.47;15.47;;;;;;;5.42;100.00;96938.84;5040903;28;20033;-74
2021/10/19 03:43:57;;;;;;;24.03;15.73;;;;;;;5.44;100.00;96944.78;5012237;28;20029;-75
2021/10/19 03:46:22;;;;;;;20.03;14.73;;;;;;;5.46;100.00;96948.09;5030207;28;20029;-74
2021/10/19 03:48:48;;;;;;;22.07;15.43;;;;;;;5.53;100.00;96951.94;5040833;28;20029;-75
2021/10/19 03:51:14;;;;;;;20.97;14.27;;;;;;;5.56;100.00;96943.06;5021248;28;20702;-75
2021/10/19 03:53:41;;;;;;;21.27;14.97;;;;;;;5.58;100.00;96938.56;5041781;28;20025;-75
2021/10/19 03:56:07;;;;;;;19.50;13.53;;;;;;;5.59;100.00;96948.88;5026532;28;20051;-75
2021/10/19 03:58:33;;;;;;;19.10;14.37;;;;;;;5.62;100.00;96942.63;5035469;28;20021;-74
2021/10/19 04:00:59;;;;;;;23.17;15.30;;;;;;;5.57;100.00;96942.13;5028910;28;20456;-75
2021/10/19 04:03:25;;;;;;;22.03;15.13;;;;;;;5.44;100.00;96940.41;5026718;28;20025;-75
2021/10/19 04:05:52;;;;;;;19.80;14.23;;;;;;;5.49;100.00;96949.66;5023871;28;20117;-74
2021/10/19 04:08:18;;;;;;;22.63;15.23;;;;;;;5.43;100.00;96946.56;5038104;28;20151;-74
2021/10/19 04:26:17;;;;;;;23.03;15.03;;;;;;;5.24;100.00;96940.16;5014469;28;20051;-75
2021/10/19 04:28:44;;;;;;;23.97;15.13;;;;;;;5.26;100.00;96944.31;5029357;28;20483;-76
2021/10/19 04:31:10;;;;;;;20.80;15.57;;;;;;;5.25;100.00;96934.00;5028415;28;20033;-75
2021/10/19 04:33:36;;;;;;;23.40;16.10;;;;;;;5.19;100.00;96919.63;5036985;28;20128;-75
2021/10/19 04:36:04;;;;;;;24.07;15.90;;;;;;;5.25;100.00;96913.13;5027261;28;20032;-75
2021/10/19 04:38:35;;;;;;;22.27;16.57;;;;;;;5.22;100.00;96918.56;5045172;28;20083;-75
2021/10/19 04:41:02;;;;;;;23.37;14.70;;;;;;;5.21;100.00;96930.78;5030452;28;20465;-75
2021/10/19 04:43:28;;;;;;;24.13;15.83;;;;;;;5.24;100.00;96925.34;5035318;28;20378;-75
2021/10/19 04:45:54;;;;;;;22.20;15.53;;;;;;;5.27;100.00;96932.97;5036956;28;20025;-75
2021/10/19 04:48:23;;;;;;;23.33;15.93;;;;;;;5.26;100.00;96928.66;5022317;28;20549;-75
2021/10/19 04:50:49;;;;;;;20.90;14.53;;;;;;;5.31;100.00;96933.56;5029147;28;20037;-75
2021/10/19 04:53:15;;;;;;;22.70;14.80;;;;;;;5.32;100.00;96932.63;5041573;28;20120;-75
2021/10/19 04:55:41;;;;;;;20.40;15.20;;;;;;;5.34;100.00;96926.34;5039984;28;20112;-75
2021/10/19 04:58:06;;;;;;;19.80;14.20;;;;;;;5.40;100.00;96936.34;5033437;28;20390;-75
2021/10/19 05:00:32;;;;;;;19.47;14.60;;;;;;;5.48;100.00;96929.75;5006895;28;20030;-75
2021/10/19 05:02:58;;;;;;;24.20;15.27;;;;;;;5.58;100.00;96933.34;5036159;28;20017;-75
2021/10/19 05:05:25;;;;;;;19.60;14.20;;;;;;;5.43;100.00;96941.34;5034756;28;20044;-75
2021/10/19 05:07:51;;;;;;;22.80;16.17;;;;;;;5.42;100.00;96936.22;5031961;28;20025;-75
2021/10/19 05:10:18;;;;;;;22.27;15.80;;;;;;;5.44;100.00;96942.19;5024852;28;20052;-75
2021/10/19 05:12:44;;;;;;;23.70;15.27;;;;;;;5.35;100.00;96941.06;5027692;28;20030;-76
2021/10/19 05:15:10;;;;;;;23.37;14.87;;;;;;;5.40;100.00;96932.91;5038319;28;20040;-76
2021/10/19 05:17:37;;;;;;;22.47;15.77;;;;;;;5.44;100.00;96931.75;5029844;28;20101;-76
2021/10/19 05:20:04;;;;;;;18.97;14.00;;;;;;;5.49;100.00;96931.41;5025023;28;20039;-75
2021/10/19 05:22:30;;;;;;;20.70;14.70;;;;;;;5.54;100.00;96927.53;5037890;28;20175;-76
2021/10/19 05:24:56;;;;;;;22.17;16.10;;;;;;;5.54;100.00;96935.34;5037549;28;20550;-76
2021/10/19 05:27:22;;;;;;;21.07;14.83;;;;;;;5.55;100.00;96930.97;5039038;28;20025;-75
2021/10/19 05:29:48;;;;;;;20.40;14.40;;;;;;;5.55;100.00;96920.53;5042371;28;20033;-75
2021/10/19 05:32:14;;;;;;;19.10;14.47;;;;;;;5.56;100.00;96924.78;5028439;28;20044;-75
2021/10/19 05:34:40;;;;;;;20.50;14.10;;;;;;;5.54;100.00;96918.88;5022683;28;20057;-75
2021/10/19 05:37:05;;;;;;;23.70;16.07;;;;;;;5.54;100.00;96913.66;5038178;28;20474;-76
2021/10/19 05:39:31;;;;;;;20.17;14.53;;;;;;;5.63;100.00;96912.97;5029558;28;20029;-76
2021/10/19 05:41:59;;;;;;;18.57;13.60;;;;;;;5.76;100.00;96918.13;5035750;28;20060;-76
2021/10/19 05:44:26;;;;;;;20.27;13.87;;;;;;;5.79;100.00;96915.28;5029059;28;20033;-76
2021/10/19 05:46:52;;;;;;;22.03;13.63;;;;;;;5.83;100.00;96912.34;5026811;28;20040;-76
2021/10/19 05:49:18;;;;;;;19.17;13.40;;;;;;;5.87;100.00;96915.56;5029960;28;20674;-76
2021/10/19 05:51:44;;;;;;;19.60;13.77;;;;;;;5.92;100.00;96908.22;5033646;28;20021;-75
2021/10/19 05:54:13;;;;;;;18.20;13.13;;;;;;;5.96;100.00;96909.69;5038589;28;20043;-75
2021/10/19 05:56:39;;;;;;;18.10;12.40;;;;;;;6.01;100.00;96909.38;5038613;28;20022;-76
2021/10/19 05:59:05;;;;;;;17.13;12.43;;;;;;;6.04;100.00;96923.03;5040310;28;20197;-76
2021/10/19 06:01:31;;;;;;;19.80;13.40;;;;;;;6.08;100.00;96928.84;5043667;28;20095;-77
2021/10/19 06:03:56;;;;;;;23.10;14.67;;;;;;;6.13;100.00;96924.09;5037956;28;20029;-76
2021/10/19 06:06:22;;;;;;;22.70;14.30;;;;;;;6.16;100.00;96923.88;5041890;28;20052;-76
2021/10/19 06:08:51;;;;;;;18.80;13.47;;;;;;;6.19;100.00;96938.47;5033384;28;20045;-75
2021/10/19 06:11:18;;;;;;;19.43;13.33;;;;;;;6.17;100.00;96942.97;5030168;28;20041;-75
2021/10/19 06:13:44;;;;;;;17.93;12.90;;;;;;;6.19;100.00;96947.16;5033663;28;20399;-75
2021/10/19 06:16:09;;;;;;;17.07;12.43;;;;;;;6.22;100.00;96949.53;5039454;28;20056;-75
2021/10/19 06:18:35;;;;;;;20.40;13.93;;;;;;;6.23;100.00;96952.97;5035321;28;20356;-75
2021/10/19 06:21:02;;;;;;;19.20;12.90;;;;;;;6.07;100.00;96953.28;5031189;28;20039;-75
2021/10/19 06:23:28;;;;;;;18.10;12.60;;;;;;;6.07;100.00;96953.28;5045666;28;20025;-75
2021/10/19 06:25:54;;;;;;;18.50;12.73;;;;;;;5.93;100.00;96956.06;5031365;28;20078;-74
2021/10/19 06:28:20;;;;;;;18.10;13.23;;;;;;;5.89;100.00;96951.03;5041911;28;20041;-74
2021/10/19 06:30:45;;;;;;;19.03;13.03;;;;;;;5.99;100.00;96956.44;5015847;28;20046;-75
2021/10/19 06:33:11;;;;;;;24.87;13.70;;;;;;;6.01;100.00;96958.97;5046055;28;20186;-77
2021/10/19 06:35:37;;;;;;;17.80;12.97;;;;;;;6.10;100.00;96958.25;5035791;28;20108;-76
2021/10/19 06:38:03;;;;;;;20.40;13.63;;;;;;;6.22;100.00;96965.19;5013734;28;20159;-76
2021/10/19 06:40:29;;;;;;;18.53;13.07;;;;;;;6.34;100.00;96968.69;5027582;28;20025;-76
2021/10/19 06:42:54;;;;;;;18.50;12.63;;;;;;;6.38;100.00;96957.88;5042698;28;20509;-76
2021/10/19 06:45:20;;;;;;;17.17;12.00;;;;;;;6.45;100.00;96967.88;5041103;28;20029;-76
2021/10/19 06:47:46;;;;;;;19.17;13.73;;;;;;;6.49;100.00;96974.53;5032543;28;20518;-76
2021/10/19 06:50:11;;;;;;;16.47;12.00;;;;;;;6.58;100.00;96976.47;5029918;28;20042;-76
2021/10/19 06:52:37;;;;;;;16.50;10.67;;;;;;;6.65;100.00;96974.22;5036743;28;20501;-76
2021/10/19 06:55:04;;;;;;;19.00;11.87;;;;;;;6.73;100.00;96975.28;5032675;28;20060;-76
2021/10/19 06:57:31;;;;;;;19.47;13.27;;;;;;;6.79;100.00;96982.66;5031584;28;20686;-76
2021/10/19 07:00:03;;;;;;;20.70;14.93;;;;;;;6.80;100.00;96986.91;5037649;28;20031;-76
2021/10/19 07:02:29;;;;;;;19.37;14.67;;;;;;;6.85;100.00;96992.66;5033350;28;20032;-76
2021/10/19 07:04:55;;;;;;;21.23;14.97;;;;;;;6.89;100.00;96993.25;5033172;28;20497;-76
2021/10/19 07:07:21;;;;;;;19.93;14.97;;;;;;;6.94;100.00;96991.13;5020425;28;20362;-76
2021/10/19 07:09:46;;;;;;;20.60;14.73;;;;;;;6.97;100.00;96996.09;5031152;28;20052;-76
2021/10/19 07:12:12;;;;;;;18.93;15.53;;;;;;;6.99;100.00;96995.97;5031361;28;20525;-76
2021/10/19 07:14:37;;;;;;;19.43;14.03;;;;;;;7.05;100.00;96995.50;5038326;28;20024;-76
2021/10/19 07:17:03;;;;;;;19.13;13.77;;;;;;;6.96;100.00;96991.00;5032883;28;20514;-77
2021/10/19 07:19:29;;;;;;;18.80;12.67;;;;;;;6.99;100.00;97004.66;5051238;28;20566;-76
2021/10/19 07:21:54;;;;;;;21.47;15.27;;;;;;;7.07;100.00;97002.28;5029250;28;20406;-76
2021/10/19 07:24:21;;;;;;;20.40;13.90;;;;;;;7.09;100.00;96999.56;5039217;28;20053;-76
2021/10/19 07:26:48;;;;;;;21.33;13.50;;;;;;;7.17;100.00;97001.56;5038399;28;20034;-76
2021/10/19 07:29:14;;;;;;;19.93;14.20;;;;;;;7.30;100.00;96999.66;5037758;28;20116;-76
2021/10/19 07:31:39;;;;;;;21.83;13.27;;;;;;;7.37;100.00;96985.13;5044145;28;20121;-76
2021/10/19 07:34:05;;;;;;;16.17;11.97;;;;;;;7.46;100.00;96991.44;5026296;28;20029;-76
2021/10/19 07:36:32;;;;;;;16.53;12.57;;;;;;;7.55;100.00;96990.72;5045730;28;20037;-76
2021/10/19 07:38:57;;;;;;;19.73;13.87;;;;;;;7.58;100.00;96990.47;5030797;28;20101;-76
2021/10/19 07:41:24;;;;;;;19.43;14.67;;;;;;;7.55;100.00;96985.50;5028970;28;20586;-76
2021/10/19 07:43:49;;;;;;;18.07;13.67;;;;;;;7.58;100.00;96990.47;5038771;28;20108;-76
2021/10/19 07:46:15;;;;;;;19.70;13.10;;;;;;;7.64;100.00;96989.97;5034606;28;20674;-76
2021/10/19 07:48:41;;;;;;;16.80;11.63;;;;;;;7.68;100.00;96991.41;5036644;28;20537;-75
2021/10/19 07:51:06;;;;;;;17.40;11.33;;;;;;;7.69;100.00;96985.22;5028452;28;20510;-76
2021/10/19 07:53:32;;;;;;;18.33;13.03;;;;;;;7.66;100.00;96982.84;5033240;28;20449;-76
2021/10/19 07:55:58;;;;;;;19.30;13.57;;;;;;;7.66;100.00;96984.63;5040473;28;20037;-77
2021/10/19 07:58:24;;;;;;;19.23;13.00;;;;;;;7.71;100.00;96987.69;5038369;28;20018;-76
2021/10/19 08:00:50;;;;;;;16.70;12.67;;;;;;;7.72;100.00;96990.19;5036301;28;20040;-76
2021/10/19 08:03:15;;;;;;;22.43;14.37;;;;;;;7.76;100.00;96996.84;5037977;28;20048;-76
2021/10/19 08:05:42;;;;;;;19.30;13.77;;;;;;;7.83;100.00;96991.94;5037339;28;20040;-76
2021/10/19 08:08:10;;;;;;;18.57;12.90;;;;;;;7.67;100.00;96996.75;5044957;28;20482;-76
2021/10/19 08:10:39;;;;;;;24.07;15.23;;;;;;;7.57;100.00;96994.84;5036603;28;20025;-76
2021/10/19 08:13:06;;;;;;;19.63;15.10;;;;;;;7.64;100.00;96997.00;5037927;28;20036;-76
2021/10/19 08:15:33;;;;;;;20.23;15.93;;;;;;;7.78;100.00;97002.81;5036321;28;20498;-76
2021/10/19 08:17:59;;;;;;;22.40;15.57;;;;;;;7.92;100.00;97001.69;5025952;28;20032;-76
2021/10/19 08:20:25;;;;;;;22.50;13.77;;;;;;;8.10;100.00;97001.97;5041104;28;20017;-76
2021/10/19 08:22:51;;;;;;;19.57;14.80;;;;;;;8.17;100.00;97000.53;5048039;28;20033;-76
2021/10/19 08:25:17;;;;;;;19.27;14.53;;;;;;;8.30;100.00;97005.59;5036823;28;20033;-76
2021/10/19 08:27:44;;;;;;;19.97;14.30;;;;;;;8.35;100.00;97013.06;5040891;28;20040;-76
2021/10/19 08:30:12;;;;;;;26.90;18.23;;;;;;;8.44;100.00;97005.31;5011113;28;20041;-76
2021/10/19 08:32:39;;;;;;;21.93;17.23;;;;;;;8.57;100.00;97012.16;5032284;28;20028;-73
2021/10/19 08:35:06;;;;;;;23.17;15.00;;;;;;;8.49;100.00;97004.94;5033141;28;20490;-73
2021/10/19 08:37:32;;;;;;;18.50;13.57;;;;;;;8.42;100.00;97009.03;5025626;28;20029;-74
2021/10/19 08:39:59;;;;;;;25.33;14.07;;;;;;;8.43;100.00;97001.03;5029039;28;20055;-75
2021/10/19 08:42:25;;;;;;;20.00;14.53;;;;;;;8.41;100.00;97002.13;5028455;28;20481;-74
2021/10/19 08:44:51;;;;;;;22.50;16.23;;;;;;;8.59;100.00;96994.53;5037802;28;20029;-74
2021/10/19 08:47:17;;;;;;;26.60;18.63;;;;;;;8.59;100.00;96995.34;5011495;28;20025;-76
2021/10/19 08:49:43;;;;;;;20.60;15.83;;;;;;;8.53;100.00;96993.25;5033496;28;20044;-75
2021/10/19 08:52:09;;;;;;;20.77;14.73;;;;;;;8.36;100.00;96994.59;5037352;28;20103;-75
2021/10/19 08:54:36;;;;;;;21.27;14.93;;;;;;;8.53;100.00;96997.66;5036953;28;20025;-75
2021/10/19 08:57:03;;;;;;;18.83;14.20;;;;;;;8.67;100.00;97013.06;5035459;28;20026;-75
2021/10/19 08:59:28;;;;;;;20.10;15.37;;;;;;;8.80;100.00;97028.59;5039253;28;20053;-75
2021/10/19 09:01:56;;;;;;;23.37;16.47;;;;;;;8.98;100.00;97035.75;5035976;28;20126;-75
2021/10/19 09:04:28;;;;;;;24.50;17.27;;;;;;;9.02;100.00;97025.00;5040147;28;20060;-75
2021/10/19 09:06:53;;;;;;;31.40;21.17;;;;;;;9.01;100.00;97037.28;5043703;28;20040;-75
2021/10/19 09:09:25;;;;;;;23.73;16.70;;;;;;;9.02;100.00;97036.34;5029777;28;20030;-75
2021/10/19 09:11:54;;;;;;;22.37;16.90;;;;;;;8.92;100.00;97040.66;5036518;28;20036;-75
2021/10/19 09:14:21;;;;;;;29.73;21.90;;;;;;;8.95;100.00;97036.03;5037305;28;20028;-75
2021/10/19 09:16:51;;;;;;;17.47;13.30;;;;;;;8.88;100.00;97032.22;5026309;28;20032;-75
2021/10/19 09:19:19;;;;;;;20.17;15.53;;;;;;;9.00;100.00;97026.94;5038367;28;20693;-74
2021/10/19 09:22:00;;;;;;;17.87;14.10;;;;;;;8.98;100.00;97030.50;5029992;28;20035;-75
2021/10/19 09:24:29;;;;;;;19.67;13.63;;;;;;;9.13;100.00;97019.69;5033155;28;20677;-74
2021/10/19 09:27:02;;;;;;;18.93;14.80;;;;;;;9.25;100.00;97012.53;5035659;28;20529;-75
2021/10/19 09:29:29;;;;;;;;;;;;;;;9.20;100.00;97007.69;5032149;28;20121;-75
2021/10/19 09:31:57;;;;;;;21.43;14.50;;;;;;;9.13;100.00;97002.13;5023580;28;19916;-75
2021/10/19 09:34:26;;;;;;;18.73;13.93;;;;;;;9.33;100.00;97017.97;5040517;28;20033;-75
2021/10/19 09:36:52;;;;;;;21.53;16.50;;;;;;;9.47;100.00;97012.34;5023076;28;20025;-75
2021/10/19 09:39:53;;;;;;;22.17;15.90;;;;;;;9.50;100.00;97017.34;5039385;28;20034;-74
2021/10/19 09:42:27;;;;;;;17.97;13.67;;;;;;;9.61;100.00;97022.47;4993362;28;20034;-75
2021/10/19 09:45:00;;;;;;;15.60;11.50;;;;;;;9.78;100.00;97018.38;5037208;28;20033;-75
2021/10/19 09:47:39;;;;;;;18.57;13.20;;;;;;;10.01;100.00;97024.22;5049986;28;20033;-75
2021/10/19 09:50:07;;;;;;;16.10;10.77;;;;;;;10.22;100.00;97032.00;5029737;28;20067;-74
2021/10/19 09:52:37;;;;;;;17.53;11.97;;;;;;;10.41;100.00;97035.63;5047999;28;20096;-74
2021/10/19 09:55:10;;;;;;;16.17;11.30;;;;;;;10.59;100.00;97033.97;5043678;28;20024;-75
2021/10/19 09:57:38;;;;;;;15.10;10.18;;;;;;;10.64;100.00;97025.66;5009240;28;20026;-74
2021/10/19 10:00:07;;;;;;;16.13;10.10;;;;;;;10.67;100.00;97025.38;5035947;28;20040;-76
2021/10/19 10:02:39;;;;;;;14.13;9.60;;;;;;;10.78;100.00;97030.47;5042396;28;20028;-75
2021/10/19 10:05:06;;;;;;;14.93;9.30;;;;;;;10.85;100.00;97032.41;5029325;28;20095;-74
2021/10/19 10:07:36;;;;;;;12.40;8.63;;;;;;;10.92;100.00;97035.31;5022692;28;20033;-75
2021/10/19 10:10:04;;;;;;;10.50;7.03;;;;;;;11.04;100.00;97018.38;5026538;28;20033;-74
2021/10/19 10:12:34;;;;;;;12.60;8.00;;;;;;;11.13;100.00;97032.47;5029032;28;20028;-74
2021/10/19 10:15:01;;;;;;;10.27;7.03;;;;;;;11.12;100.00;97041.34;5035507;28;20049;-74
2021/10/19 10:17:26;;;;;;;9.83;6.53;;;;;;;11.14;100.00;97044.69;5019054;28;20036;-74
2021/10/19 10:19:53;;;;;;;14.03;7.93;;;;;;;11.06;100.00;97045.38;5011331;28;20486;-74
2021/10/19 10:22:29;;;;;;;10.37;6.67;;;;;;;10.93;100.00;97039.63;5036773;28;20031;-76
2021/10/19 10:25:16;;;;;;;11.40;7.20;;;;;;;10.86;100.00;97056.91;5034453;28;20025;-75
2021/10/19 10:27:42;;;;;;;10.20;6.43;;;;;;;10.84;100.00;97049.16;5004910;28;20034;-76
2021/10/19 10:30:23;;;;;;;11.13;6.70;;;;;;;10.67;100.00;97046.44;5043792;28;20118;-75
2021/10/19 10:32:49;;;;;;;11.17;7.03;;;;;;;10.62;100.00;97045.03;5034565;28;20033;-76
2021/10/19 10:35:17;;;;;;;9.97;7.30;;;;;;;10.65;100.00;97046.56;5030613;28;20033;-76
2021/10/19 10:37:51;;;;;;;14.17;9.53;;;;;;;10.65;100.00;97043.09;5036368;28;20033;-76
2021/10/19 10:40:38;;;;;;;12.47;8.77;;;;;;;10.58;100.00;97040.19;5039406;28;20033;-76
2021/10/19 10:43:27;;;;;;;12.00;8.17;;;;;;;10.54;100.00;97028.31;5019020;28;20026;-76
2021/10/19 10:46:19;;;;;;;12.80;8.57;;;;;;;10.45;100.00;97016.81;5019695;28;20029;-77
2021/10/19 10:48:45;;;;;;;12.53;8.80;;;;;;;10.50;100.00;97014.59;5026084;28;20068;-76
2021/10/19 10:51:13;;;;;;;10.90;7.53;;;;;;;10.57;100.00;97014.88;5029866;28;20026;-76
2021/10/19 10:53:44;;;;;;;12.17;7.30;;;;;;;10.64;100.00;97007.25;5033763;28;20032;-76
2021/10/19 10:56:13;;;;;;;9.97;6.73;;;;;;;10.66;100.00;96997.41;5034820;28;20095;-77
2021/10/19 10:58:40;;;;;;;10.60;7.40;;;;;;;10.65;100.00;96998.38;5038833;28;20036;-74
2021/10/19 11:01:13;;;;;;;9.83;6.80;;;;;;;10.71;100.00;96988.13;5031687;28;20435;-74
2021/10/19 11:03:39;;;;;;;7.22;4.35;;;;;;;10.74;100.00;96982.59;5034464;28;20124;-74
2021/10/19 11:06:05;;;;;;;11.13;7.60;;;;;;;10.78;100.00;96978.69;5027987;28;20128;-74
2021/10/19 11:08:34;;;;;;;9.47;5.97;;;;;;;10.82;100.00;96976.59;5031371;28;20360;-74
2021/10/19 11:11:08;;;;;;;10.10;6.77;;;;;;;10.82;100.00;96971.34;5026807;28;20044;-74
2021/10/19 11:13:46;;;;;;;10.27;8.37;;;;;;;10.81;100.00;96980.22;5031883;28;20053;-74
2021/10/19 11:16:12;;;;;;;11.37;6.50;;;;;;;10.85;100.00;96968.44;5024268;28;20088;-74
2021/10/19 11:18:38;;;;;;;10.63;7.17;;;;;;;10.91;100.00;96964.41;5023220;28;20025;-74
2021/10/19 11:21:04;;;;;;;10.63;7.33;;;;;;;10.97;100.00;96962.03;5065556;28;20588;-74
2021/10/19 11:23:30;;;;;;;10.33;6.63;;;;;;;11.04;100.00;96963.09;5025772;28;20021;-75
2021/10/19 11:25:57;;;;;;;10.40;7.23;;;;;;;11.13;100.00;96953.50;5031873;28;20029;-75
2021/10/19 11:28:23;;;;;;;11.03;6.73;;;;;;;11.12;100.00;96948.38;5009328;28;20074;-75
2021/10/19 11:30:49;;;;;;;10.03;6.93;;;;;;;11.03;100.00;96936.91;5032739;28;20620;-75
2021/10/19 11:33:15;;;;;;;15.63;7.90;;;;;;;11.00;100.00;96932.78;5026109;28;20029;-75